Penns Park, Pennsylvania
Current Conditions -  °F | °C
As of 9:54 PM on Sunday 23 Nov 2014 (Local Time) from KDYL Reporting Station
Overcast Overcast  
Wind Chill: 47°   Ceiling: 6500
Heat Index: 47°   Visibility: 10mi
Dew Point: 40°   Wind: 3mph
Humidity: 77%   Direction: NA
Pressure: 30.01"   Gusts: NA
Location:  40.27°N, 75°W
Report Text: KDYL 240254Z AUTO VRB03KT 10SM SCT035 OVC065 08/04 A3001 RMK AO2 SLP167 T00830044 58028
Loading
Personal Weather Stations






























Interactive Weather Map New forecast layout! Learn more

10-Day Weather Forecast

Advertisements
Track Severe Weather on mobile